sensor_id;sensor_type;location;lat;lon;timestamp;temperature;humidity
50758;DHT22;36732;47.980;11.652;2022-10-22T00:00:54;17.70;70.30
50758;DHT22;36732;47.980;11.652;2022-10-22T00:03:21;17.70;70.30
50758;DHT22;36732;47.980;11.652;2022-10-22T00:05:47;17.70;70.30
50758;DHT22;36732;47.980;11.652;2022-10-22T00:08:13;17.70;70.40
50758;DHT22;36732;47.980;11.652;2022-10-22T00:10:39;17.70;70.40
50758;DHT22;36732;47.980;11.652;2022-10-22T00:13:05;17.70;70.50
50758;DHT22;36732;47.980;11.652;2022-10-22T00:15:31;17.70;70.50
50758;DHT22;36732;47.980;11.652;2022-10-22T00:17:57;17.70;70.50
50758;DHT22;36732;47.980;11.652;2022-10-22T00:20:22;17.70;70.50
50758;DHT22;36732;47.980;11.652;2022-10-22T00:22:48;17.70;70.50
50758;DHT22;36732;47.980;11.652;2022-10-22T00:25:15;17.70;70.50
50758;DHT22;36732;47.980;11.652;2022-10-22T00:27:41;17.70;70.60
50758;DHT22;36732;47.980;11.652;2022-10-22T00:30:07;17.70;70.60
50758;DHT22;36732;47.980;11.652;2022-10-22T00:32:33;17.70;70.60
50758;DHT22;36732;47.980;11.652;2022-10-22T00:34:59;17.70;70.60
50758;DHT22;36732;47.980;11.652;2022-10-22T00:37:24;17.70;70.60
50758;DHT22;36732;47.980;11.652;2022-10-22T00:39:50;17.70;70.70
50758;DHT22;36732;47.980;11.652;2022-10-22T00:42:19;17.70;70.70
50758;DHT22;36732;47.980;11.652;2022-10-22T00:47:40;17.70;70.90
50758;DHT22;36732;47.980;11.652;2022-10-22T00:50:15;17.70;70.80
50758;DHT22;36732;47.980;11.652;2022-10-22T00:52:43;17.70;70.80
50758;DHT22;36732;47.980;11.652;2022-10-22T00:55:10;17.70;70.70
50758;DHT22;36732;47.980;11.652;2022-10-22T00:57:36;17.70;70.70
50758;DHT22;36732;47.980;11.652;2022-10-22T01:00:03;17.60;70.60
50758;DHT22;36732;47.980;11.652;2022-10-22T01:02:29;17.70;70.80
50758;DHT22;36732;47.980;11.652;2022-10-22T01:04:55;17.70;71.30
50758;DHT22;36732;47.980;11.652;2022-10-22T01:07:21;17.70;70.80
50758;DHT22;36732;47.980;11.652;2022-10-22T01:09:56;17.70;70.80
50758;DHT22;36732;47.980;11.652;2022-10-22T01:15:59;17.70;70.90
50758;DHT22;36732;47.980;11.652;2022-10-22T01:18:53;17.60;70.90
50758;DHT22;36732;47.980;11.652;2022-10-22T01:21:43;17.60;70.90
50758;DHT22;36732;47.980;11.652;2022-10-22T01:24:32;17.70;70.90
50758;DHT22;36732;47.980;11.652;2022-10-22T01:30:12;17.60;70.90
50758;DHT22;36732;47.980;11.652;2022-10-22T01:32:45;17.60;70.70
50758;DHT22;36732;47.980;11.652;2022-10-22T01:35:17;17.60;70.90
50758;DHT22;36732;47.980;11.652;2022-10-22T01:37:51;17.60;70.90
50758;DHT22;36732;47.980;11.652;2022-10-22T01:40:19;17.60;71.00
50758;DHT22;36732;47.980;11.652;2022-10-22T01:43:00;17.60;70.90
50758;DHT22;36732;47.980;11.652;2022-10-22T01:45:37;17.60;71.10
50758;DHT22;36732;47.980;11.652;2022-10-22T01:51:10;17.60;71.30
50758;DHT22;36732;47.980;11.652;2022-10-22T01:53:52;17.60;71.10
50758;DHT22;36732;47.980;11.652;2022-10-22T02:02:33;17.60;71.20
50758;DHT22;36732;47.980;11.652;2022-10-22T02:08:16;17.60;71.30
50758;DHT22;36732;47.980;11.652;2022-10-22T02:10:45;17.60;71.30
50758;DHT22;36732;47.980;11.652;2022-10-22T02:13:20;17.60;71.20
50758;DHT22;36732;47.980;11.652;2022-10-22T02:15:49;17.60;71.30
50758;DHT22;36732;47.980;11.652;2022-10-22T02:18:19;17.60;71.20
50758;DHT22;36732;47.980;11.652;2022-10-22T02:20:47;17.60;71.30
50758;DHT22;36732;47.980;11.652;2022-10-22T02:23:14;17.60;71.30
50758;DHT22;36732;47.980;11.652;2022-10-22T02:25:43;17.60;71.30
50758;DHT22;36732;47.980;11.652;2022-10-22T02:28:52;17.60;71.30
50758;DHT22;36732;47.980;11.652;2022-10-22T02:31:20;17.60;71.40
50758;DHT22;36732;47.980;11.652;2022-10-22T02:33:51;17.60;71.30
50758;DHT22;36732;47.980;11.652;2022-10-22T02:36:20;17.60;71.30
50758;DHT22;36732;47.980;11.652;2022-10-22T02:38:48;17.60;71.30
50758;DHT22;36732;47.980;11.652;2022-10-22T02:41:16;17.60;71.30
50758;DHT22;36732;47.980;11.652;2022-10-22T02:43:44;17.60;71.30
50758;DHT22;36732;47.980;11.652;2022-10-22T02:46:14;17.60;71.40
50758;DHT22;36732;47.980;11.652;2022-10-22T02:48:40;17.60;71.30
50758;DHT22;36732;47.980;11.652;2022-10-22T02:51:06;17.60;71.30
50758;DHT22;36732;47.980;11.652;2022-10-22T02:53:31;17.60;71.30
50758;DHT22;36732;47.980;11.652;2022-10-22T02:55:58;17.60;71.30
50758;DHT22;36732;47.980;11.652;2022-10-22T02:58:24;17.60;71.30
50758;DHT22;36732;47.980;11.652;2022-10-22T03:00:50;17.60;71.30
50758;DHT22;36732;47.980;11.652;2022-10-22T03:03:15;17.60;71.30
50758;DHT22;36732;47.980;11.652;2022-10-22T03:05:41;17.50;71.30
50758;DHT22;36732;47.980;11.652;2022-10-22T03:08:07;17.60;71.40
50758;DHT22;36732;47.980;11.652;2022-10-22T03:10:32;17.60;71.40
50758;DHT22;36732;47.980;11.652;2022-10-22T03:12:58;17.60;71.40
50758;DHT22;36732;47.980;11.652;2022-10-22T03:15:24;17.50;71.40
50758;DHT22;36732;47.980;11.652;2022-10-22T03:17:50;17.60;71.40
50758;DHT22;36732;47.980;11.652;2022-10-22T03:20:15;17.60;71.40
50758;DHT22;36732;47.980;11.652;2022-10-22T03:22:42;17.60;71.40
50758;DHT22;36732;47.980;11.652;2022-10-22T03:25:12;17.50;71.40
50758;DHT22;36732;47.980;11.652;2022-10-22T03:27:40;17.50;71.40
50758;DHT22;36732;47.980;11.652;2022-10-22T03:30:07;17.60;71.50
50758;DHT22;36732;47.980;11.652;2022-10-22T03:32:33;17.50;71.30
50758;DHT22;36732;47.980;11.652;2022-10-22T03:34:59;17.60;71.40
50758;DHT22;36732;47.980;11.652;2022-10-22T03:37:26;17.60;71.40
50758;DHT22;36732;47.980;11.652;2022-10-22T03:39:53;17.50;71.40
50758;DHT22;36732;47.980;11.652;2022-10-22T03:42:20;17.50;71.30
50758;DHT22;36732;47.980;11.652;2022-10-22T03:44:46;17.50;71.30
50758;DHT22;36732;47.980;11.652;2022-10-22T03:47:13;17.50;71.30
50758;DHT22;36732;47.980;11.652;2022-10-22T03:49:39;17.50;71.30
50758;DHT22;36732;47.980;11.652;2022-10-22T03:52:12;17.50;71.10
50758;DHT22;36732;47.980;11.652;2022-10-22T03:54:39;17.50;70.90
50758;DHT22;36732;47.980;11.652;2022-10-22T03:57:06;17.50;70.90
50758;DHT22;36732;47.980;11.652;2022-10-22T03:59:37;17.50;70.90
50758;DHT22;36732;47.980;11.652;2022-10-22T04:02:04;17.50;70.90
50758;DHT22;36732;47.980;11.652;2022-10-22T04:04:30;17.50;70.80
50758;DHT22;36732;47.980;11.652;2022-10-22T04:06:56;17.50;70.70
50758;DHT22;36732;47.980;11.652;2022-10-22T04:09:22;17.50;70.60
50758;DHT22;36732;47.980;11.652;2022-10-22T04:11:47;17.50;70.50
50758;DHT22;36732;47.980;11.652;2022-10-22T04:14:13;17.50;70.40
50758;DHT22;36732;47.980;11.652;2022-10-22T04:16:40;17.50;70.30
50758;DHT22;36732;47.980;11.652;2022-10-22T04:19:06;17.50;70.20
50758;DHT22;36732;47.980;11.652;2022-10-22T04:21:32;17.40;70.00
50758;DHT22;36732;47.980;11.652;2022-10-22T04:23:58;17.40;69.80
50758;DHT22;36732;47.980;11.652;2022-10-22T04:26:24;17.40;69.70
50758;DHT22;36732;47.980;11.652;2022-10-22T04:28:51;17.40;69.70
50758;DHT22;36732;47.980;11.652;2022-10-22T04:31:20;17.40;69.60
50758;DHT22;36732;47.980;11.652;2022-10-22T04:33:50;17.40;69.50
50758;DHT22;36732;47.980;11.652;2022-10-22T04:36:18;17.40;69.40
50758;DHT22;36732;47.980;11.652;2022-10-22T04:38:46;17.40;69.40
50758;DHT22;36732;47.980;11.652;2022-10-22T04:41:21;17.30;69.20
50758;DHT22;36732;47.980;11.652;2022-10-22T04:43:52;17.30;69.00
50758;DHT22;36732;47.980;11.652;2022-10-22T04:46:18;17.30;69.20
50758;DHT22;36732;47.980;11.652;2022-10-22T04:48:45;17.30;69.20
50758;DHT22;36732;47.980;11.652;2022-10-22T04:51:14;17.30;69.20
50758;DHT22;36732;47.980;11.652;2022-10-22T04:53:41;17.30;69.20
50758;DHT22;36732;47.980;11.652;2022-10-22T04:56:22;17.30;69.00
50758;DHT22;36732;47.980;11.652;2022-10-22T04:58:51;17.30;69.10
50758;DHT22;36732;47.980;11.652;2022-10-22T05:01:27;17.30;69.10
50758;DHT22;36732;47.980;11.652;2022-10-22T05:04:04;17.20;68.80
50758;DHT22;36732;47.980;11.652;2022-10-22T05:06:32;17.30;68.90
50758;DHT22;36732;47.980;11.652;2022-10-22T05:09:03;17.20;68.90
50758;DHT22;36732;47.980;11.652;2022-10-22T05:11:37;17.20;68.90
50758;DHT22;36732;47.980;11.652;2022-10-22T05:14:06;17.20;68.80
50758;DHT22;36732;47.980;11.652;2022-10-22T05:16:34;17.20;68.90
50758;DHT22;36732;47.980;11.652;2022-10-22T05:19:01;17.20;68.90
50758;DHT22;36732;47.980;11.652;2022-10-22T05:21:27;17.20;68.80
50758;DHT22;36732;47.980;11.652;2022-10-22T05:23:54;17.20;68.70
50758;DHT22;36732;47.980;11.652;2022-10-22T05:26:22;17.20;68.70
50758;DHT22;36732;47.980;11.652;2022-10-22T05:28:50;17.20;68.70
50758;DHT22;36732;47.980;11.652;2022-10-22T05:31:17;17.20;68.70
50758;DHT22;36732;47.980;11.652;2022-10-22T05:33:43;17.20;68.60
50758;DHT22;36732;47.980;11.652;2022-10-22T05:36:12;17.10;68.60
50758;DHT22;36732;47.980;11.652;2022-10-22T05:38:39;17.20;68.60
50758;DHT22;36732;47.980;11.652;2022-10-22T05:41:13;17.10;68.50
50758;DHT22;36732;47.980;11.652;2022-10-22T05:43:40;17.10;68.40
50758;DHT22;36732;47.980;11.652;2022-10-22T05:46:11;17.10;68.40
50758;DHT22;36732;47.980;11.652;2022-10-22T05:48:38;17.10;68.40
50758;DHT22;36732;47.980;11.652;2022-10-22T05:51:09;17.10;68.40
50758;DHT22;36732;47.980;11.652;2022-10-22T05:53:38;17.10;68.40
50758;DHT22;36732;47.980;11.652;2022-10-22T05:56:15;17.10;68.40
50758;DHT22;36732;47.980;11.652;2022-10-22T05:58:42;17.10;68.30
50758;DHT22;36732;47.980;11.652;2022-10-22T06:01:23;17.10;68.40
50758;DHT22;36732;47.980;11.652;2022-10-22T06:03:56;17.10;68.20
50758;DHT22;36732;47.980;11.652;2022-10-22T06:06:29;17.00;68.20
50758;DHT22;36732;47.980;11.652;2022-10-22T06:09:04;17.10;68.30
50758;DHT22;36732;47.980;11.652;2022-10-22T06:11:34;17.00;68.30
50758;DHT22;36732;47.980;11.652;2022-10-22T06:14:03;17.00;68.30
50758;DHT22;36732;47.980;11.652;2022-10-22T06:16:29;17.00;68.30
50758;DHT22;36732;47.980;11.652;2022-10-22T06:18:58;17.00;68.40
50758;DHT22;36732;47.980;11.652;2022-10-22T06:21:26;17.00;68.30
50758;DHT22;36732;47.980;11.652;2022-10-22T06:23:55;17.00;68.30
50758;DHT22;36732;47.980;11.652;2022-10-22T06:26:22;17.00;68.30
50758;DHT22;36732;47.980;11.652;2022-10-22T06:28:48;17.00;68.40
50758;DHT22;36732;47.980;11.652;2022-10-22T06:31:14;17.00;68.40
50758;DHT22;36732;47.980;11.652;2022-10-22T06:33:40;17.00;68.40
50758;DHT22;36732;47.980;11.652;2022-10-22T06:36:20;17.00;68.40
50758;DHT22;36732;47.980;11.652;2022-10-22T06:38:50;17.00;68.40
50758;DHT22;36732;47.980;11.652;2022-10-22T06:41:17;17.00;68.40
50758;DHT22;36732;47.980;11.652;2022-10-22T06:43:44;17.00;68.40
50758;DHT22;36732;47.980;11.652;2022-10-22T06:46:12;17.00;68.40
50758;DHT22;36732;47.980;11.652;2022-10-22T06:48:39;17.00;68.40
50758;DHT22;36732;47.980;11.652;2022-10-22T06:51:10;16.90;68.00
50758;DHT22;36732;47.980;11.652;2022-10-22T06:53:38;17.00;68.30
50758;DHT22;36732;47.980;11.652;2022-10-22T06:56:09;17.00;68.30
50758;DHT22;36732;47.980;11.652;2022-10-22T06:58:37;17.00;68.30
50758;DHT22;36732;47.980;11.652;2022-10-22T07:01:04;17.00;68.30
50758;DHT22;36732;47.980;11.652;2022-10-22T07:03:39;16.90;68.30
50758;DHT22;36732;47.980;11.652;2022-10-22T07:06:08;17.00;68.30
50758;DHT22;36732;47.980;11.652;2022-10-22T07:08:35;17.00;68.30
50758;DHT22;36732;47.980;11.652;2022-10-22T07:11:09;17.00;68.40
50758;DHT22;36732;47.980;11.652;2022-10-22T07:13:37;16.90;68.30
50758;DHT22;36732;47.980;11.652;2022-10-22T07:16:04;16.90;68.30
50758;DHT22;36732;47.980;11.652;2022-10-22T07:18:31;16.90;68.40
50758;DHT22;36732;47.980;11.652;2022-10-22T07:20:57;16.90;68.40
50758;DHT22;36732;47.980;11.652;2022-10-22T07:23:23;16.90;68.40
50758;DHT22;36732;47.980;11.652;2022-10-22T07:25:48;16.90;68.50
50758;DHT22;36732;47.980;11.652;2022-10-22T07:28:14;16.90;68.50
50758;DHT22;36732;47.980;11.652;2022-10-22T07:30:40;17.00;68.50
50758;DHT22;36732;47.980;11.652;2022-10-22T07:33:06;16.90;68.50
50758;DHT22;36732;47.980;11.652;2022-10-22T07:35:31;16.90;68.50
50758;DHT22;36732;47.980;11.652;2022-10-22T07:37:59;16.90;68.50
50758;DHT22;36732;47.980;11.652;2022-10-22T07:40:25;16.90;68.50
50758;DHT22;36732;47.980;11.652;2022-10-22T07:42:50;17.00;68.40
50758;DHT22;36732;47.980;11.652;2022-10-22T07:45:17;16.90;68.50
50758;DHT22;36732;47.980;11.652;2022-10-22T07:47:43;16.90;68.60
50758;DHT22;36732;47.980;11.652;2022-10-22T07:50:08;17.00;68.60
50758;DHT22;36732;47.980;11.652;2022-10-22T07:52:35;16.90;68.60
50758;DHT22;36732;47.980;11.652;2022-10-22T07:55:00;16.90;68.60
50758;DHT22;36732;47.980;11.652;2022-10-22T07:57:26;16.90;68.60
50758;DHT22;36732;47.980;11.652;2022-10-22T07:59:52;17.00;68.70
50758;DHT22;36732;47.980;11.652;2022-10-22T08:02:17;17.00;68.70
50758;DHT22;36732;47.980;11.652;2022-10-22T08:04:43;16.90;68.70
50758;DHT22;36732;47.980;11.652;2022-10-22T08:07:09;17.00;68.60
50758;DHT22;36732;47.980;11.652;2022-10-22T08:09:35;16.90;68.60
50758;DHT22;36732;47.980;11.652;2022-10-22T08:12:00;16.90;68.40
50758;DHT22;36732;47.980;11.652;2022-10-22T08:14:26;17.00;68.70
50758;DHT22;36732;47.980;11.652;2022-10-22T08:16:52;16.90;68.70
50758;DHT22;36732;47.980;11.652;2022-10-22T08:19:17;16.90;68.70
50758;DHT22;36732;47.980;11.652;2022-10-22T08:21:45;16.90;68.70
50758;DHT22;36732;47.980;11.652;2022-10-22T08:24:12;16.90;68.80
50758;DHT22;36732;47.980;11.652;2022-10-22T08:26:38;16.90;68.90
50758;DHT22;36732;47.980;11.652;2022-10-22T08:29:04;17.00;68.90
50758;DHT22;36732;47.980;11.652;2022-10-22T08:31:30;16.90;68.90
50758;DHT22;36732;47.980;11.652;2022-10-22T08:33:56;16.90;68.90
50758;DHT22;36732;47.980;11.652;2022-10-22T08:36:22;17.00;69.00
50758;DHT22;36732;47.980;11.652;2022-10-22T08:38:48;17.00;69.00
50758;DHT22;36732;47.980;11.652;2022-10-22T08:41:19;17.00;69.00
50758;DHT22;36732;47.980;11.652;2022-10-22T08:44:04;17.00;69.10
50758;DHT22;36732;47.980;11.652;2022-10-22T08:49:41;17.00;69.10
50758;DHT22;36732;47.980;11.652;2022-10-22T08:52:12;17.00;69.00
50758;DHT22;36732;47.980;11.652;2022-10-22T08:54:55;17.00;69.10
50758;DHT22;36732;47.980;11.652;2022-10-22T09:00:42;17.00;69.30
50758;DHT22;36732;47.980;11.652;2022-10-22T09:04:03;17.00;69.20
50758;DHT22;36732;47.980;11.652;2022-10-22T09:06:31;17.00;69.30
50758;DHT22;36732;47.980;11.652;2022-10-22T09:08:59;17.00;69.30
50758;DHT22;36732;47.980;11.652;2022-10-22T09:11:30;17.00;69.30
50758;DHT22;36732;47.980;11.652;2022-10-22T09:13:58;17.00;69.40
50758;DHT22;36732;47.980;11.652;2022-10-22T09:27:39;17.00;69.60
50758;DHT22;36732;47.980;11.652;2022-10-22T09:30:05;17.00;69.60
50758;DHT22;36732;47.980;11.652;2022-10-22T09:32:32;17.00;69.70
50758;DHT22;36732;47.980;11.652;2022-10-22T09:34:58;17.00;69.70
50758;DHT22;36732;47.980;11.652;2022-10-22T09:37:26;17.00;69.70
50758;DHT22;36732;47.980;11.652;2022-10-22T09:39:55;17.00;69.70
50758;DHT22;36732;47.980;11.652;2022-10-22T09:42:21;17.00;69.80
50758;DHT22;36732;47.980;11.652;2022-10-22T09:44:53;17.00;69.90
50758;DHT22;36732;47.980;11.652;2022-10-22T09:47:41;17.00;69.90
50758;DHT22;36732;47.980;11.652;2022-10-22T09:53:03;17.00;70.00
50758;DHT22;36732;47.980;11.652;2022-10-22T09:55:38;17.00;70.20
50758;DHT22;36732;47.980;11.652;2022-10-22T09:58:09;17.00;70.10
50758;DHT22;36732;47.980;11.652;2022-10-22T10:00:39;17.00;70.20
50758;DHT22;36732;47.980;11.652;2022-10-22T10:03:05;17.00;70.10
50758;DHT22;36732;47.980;11.652;2022-10-22T10:05:33;17.10;70.10
50758;DHT22;36732;47.980;11.652;2022-10-22T10:08:11;17.00;70.20
50758;DHT22;36732;47.980;11.652;2022-10-22T10:13:59;17.00;70.40
50758;DHT22;36732;47.980;11.652;2022-10-22T10:16:55;17.00;70.50
50758;DHT22;36732;47.980;11.652;2022-10-22T10:19:40;17.00;70.60
50758;DHT22;36732;47.980;11.652;2022-10-22T10:37:03;17.00;70.90
50758;DHT22;36732;47.980;11.652;2022-10-22T10:42:49;17.00;70.80
50758;DHT22;36732;47.980;11.652;2022-10-22T10:45:36;17.00;70.80
50758;DHT22;36732;47.980;11.652;2022-10-22T10:48:54;17.00;70.80
50758;DHT22;36732;47.980;11.652;2022-10-22T10:57:18;17.00;71.40
50758;DHT22;36732;47.980;11.652;2022-10-22T11:00:19;17.10;71.50
50758;DHT22;36732;47.980;11.652;2022-10-22T11:03:07;17.10;71.80
50758;DHT22;36732;47.980;11.652;2022-10-22T11:05:58;17.10;71.80
50758;DHT22;36732;47.980;11.652;2022-10-22T11:08:30;17.10;71.90
50758;DHT22;36732;47.980;11.652;2022-10-22T11:11:10;17.10;72.10
50758;DHT22;36732;47.980;11.652;2022-10-22T11:13:51;17.10;72.40
50758;DHT22;36732;47.980;11.652;2022-10-22T11:16:34;17.10;72.00
50758;DHT22;36732;47.980;11.652;2022-10-22T11:21:44;17.20;72.20
50758;DHT22;36732;47.980;11.652;2022-10-22T11:24:35;17.20;72.20
50758;DHT22;36732;47.980;11.652;2022-10-22T11:29:41;17.20;72.10
50758;DHT22;36732;47.980;11.652;2022-10-22T11:32:18;17.20;71.90
50758;DHT22;36732;47.980;11.652;2022-10-22T11:35:04;17.20;72.10
50758;DHT22;36732;47.980;11.652;2022-10-22T11:37:32;17.30;72.20
50758;DHT22;36732;47.980;11.652;2022-10-22T11:40:35;17.30;72.10
50758;DHT22;36732;47.980;11.652;2022-10-22T11:43:08;17.30;72.20
50758;DHT22;36732;47.980;11.652;2022-10-22T11:45:42;17.30;72.00
50758;DHT22;36732;47.980;11.652;2022-10-22T11:50:58;17.30;72.00
50758;DHT22;36732;47.980;11.652;2022-10-22T11:53:37;17.30;71.90
50758;DHT22;36732;47.980;11.652;2022-10-22T12:11:38;17.40;71.90
50758;DHT22;36732;47.980;11.652;2022-10-22T12:19:36;17.40;71.90
50758;DHT22;36732;47.980;11.652;2022-10-22T12:24:51;17.40;71.50
50758;DHT22;36732;47.980;11.652;2022-10-22T12:27:27;17.40;71.60
50758;DHT22;36732;47.980;11.652;2022-10-22T12:30:15;17.40;71.50
50758;DHT22;36732;47.980;11.652;2022-10-22T12:32:44;17.50;71.50
50758;DHT22;36732;47.980;11.652;2022-10-22T12:35:22;17.50;71.50
50758;DHT22;36732;47.980;11.652;2022-10-22T12:37:51;17.50;71.50
50758;DHT22;36732;47.980;11.652;2022-10-22T12:40:26;17.50;71.50
50758;DHT22;36732;47.980;11.652;2022-10-22T12:42:55;17.50;71.40
50758;DHT22;36732;47.980;11.652;2022-10-22T12:45:29;17.50;71.50
50758;DHT22;36732;47.980;11.652;2022-10-22T12:48:02;17.50;71.60
50758;DHT22;36732;47.980;11.652;2022-10-22T12:50:41;17.50;71.70
50758;DHT22;36732;47.980;11.652;2022-10-22T12:53:26;17.50;71.60
50758;DHT22;36732;47.980;11.652;2022-10-22T12:55:56;17.50;71.50
50758;DHT22;36732;47.980;11.652;2022-10-22T12:58:28;17.60;71.50
50758;DHT22;36732;47.980;11.652;2022-10-22T13:01:01;17.60;71.50
50758;DHT22;36732;47.980;11.652;2022-10-22T13:03:31;17.60;71.50
50758;DHT22;36732;47.980;11.652;2022-10-22T13:06:33;17.60;71.50
50758;DHT22;36732;47.980;11.652;2022-10-22T13:09:21;17.60;71.40
50758;DHT22;36732;47.980;11.652;2022-10-22T13:11:52;17.60;71.30
50758;DHT22;36732;47.980;11.652;2022-10-22T13:14:29;17.60;71.30
50758;DHT22;36732;47.980;11.652;2022-10-22T13:22:35;17.60;71.40
50758;DHT22;36732;47.980;11.652;2022-10-22T13:27:42;17.60;71.30
50758;DHT22;36732;47.980;11.652;2022-10-22T13:30:17;17.60;71.30
50758;DHT22;36732;47.980;11.652;2022-10-22T13:32:53;17.60;71.00
50758;DHT22;36732;47.980;11.652;2022-10-22T13:35:24;17.60;70.90
50758;DHT22;36732;47.980;11.652;2022-10-22T13:37:52;17.60;70.20
50758;DHT22;36732;47.980;11.652;2022-10-22T13:40:18;17.60;70.20
50758;DHT22;36732;47.980;11.652;2022-10-22T13:42:45;17.60;70.10
50758;DHT22;36732;47.980;11.652;2022-10-22T13:45:11;17.70;70.30
50758;DHT22;36732;47.980;11.652;2022-10-22T13:47:38;17.70;70.30
50758;DHT22;36732;47.980;11.652;2022-10-22T13:50:14;17.70;70.30
50758;DHT22;36732;47.980;11.652;2022-10-22T13:52:50;17.70;70.30
50758;DHT22;36732;47.980;11.652;2022-10-22T13:57:50;17.70;70.00
50758;DHT22;36732;47.980;11.652;2022-10-22T14:00:19;17.70;70.10
50758;DHT22;36732;47.980;11.652;2022-10-22T14:02:48;17.70;69.70
50758;DHT22;36732;47.980;11.652;2022-10-22T14:05:16;17.70;69.70
50758;DHT22;36732;47.980;11.652;2022-10-22T14:07:43;17.70;69.60
50758;DHT22;36732;47.980;11.652;2022-10-22T14:10:23;17.70;69.50
50758;DHT22;36732;47.980;11.652;2022-10-22T14:12:50;17.70;69.40
50758;DHT22;36732;47.980;11.652;2022-10-22T14:15:19;17.80;69.60
50758;DHT22;36732;47.980;11.652;2022-10-22T14:17:51;17.80;69.60
50758;DHT22;36732;47.980;11.652;2022-10-22T14:20:20;17.80;69.50
50758;DHT22;36732;47.980;11.652;2022-10-22T14:22:49;17.80;69.50
50758;DHT22;36732;47.980;11.652;2022-10-22T14:25:18;17.80;69.50
50758;DHT22;36732;47.980;11.652;2022-10-22T14:27:46;17.80;69.30
50758;DHT22;36732;47.980;11.652;2022-10-22T14:30:16;17.80;69.40
50758;DHT22;36732;47.980;11.652;2022-10-22T14:32:51;17.80;69.30
50758;DHT22;36732;47.980;11.652;2022-10-22T14:35:20;17.80;69.40
50758;DHT22;36732;47.980;11.652;2022-10-22T14:37:47;17.80;69.10
50758;DHT22;36732;47.980;11.652;2022-10-22T14:40:15;17.90;69.20
50758;DHT22;36732;47.980;11.652;2022-10-22T14:42:46;17.80;68.90
50758;DHT22;36732;47.980;11.652;2022-10-22T14:45:22;17.80;69.30
50758;DHT22;36732;47.980;11.652;2022-10-22T14:47:50;17.90;69.20
50758;DHT22;36732;47.980;11.652;2022-10-22T14:50:17;17.90;69.40
50758;DHT22;36732;47.980;11.652;2022-10-22T14:52:43;17.90;69.40
50758;DHT22;36732;47.980;11.652;2022-10-22T14:55:11;17.90;69.90
50758;DHT22;36732;47.980;11.652;2022-10-22T14:57:38;17.90;69.30
50758;DHT22;36732;47.980;11.652;2022-10-22T15:00:13;17.90;69.30
50758;DHT22;36732;47.980;11.652;2022-10-22T15:02:40;17.90;69.30
50758;DHT22;36732;47.980;11.652;2022-10-22T15:05:06;17.90;69.20
50758;DHT22;36732;47.980;11.652;2022-10-22T15:07:33;17.90;69.20
50758;DHT22;36732;47.980;11.652;2022-10-22T15:09:58;17.90;69.10
50758;DHT22;36732;47.980;11.652;2022-10-22T15:12:24;17.90;69.00
50758;DHT22;36732;47.980;11.652;2022-10-22T15:14:50;17.90;69.00
50758;DHT22;36732;47.980;11.652;2022-10-22T15:17:16;17.90;69.00
50758;DHT22;36732;47.980;11.652;2022-10-22T15:19:43;17.90;68.90
50758;DHT22;36732;47.980;11.652;2022-10-22T15:22:12;17.90;68.90
50758;DHT22;36732;47.980;11.652;2022-10-22T15:24:39;17.90;68.80
50758;DHT22;36732;47.980;11.652;2022-10-22T15:27:05;17.90;68.80
50758;DHT22;36732;47.980;11.652;2022-10-22T15:29:31;17.90;68.80
50758;DHT22;36732;47.980;11.652;2022-10-22T15:31:57;17.90;68.80
50758;DHT22;36732;47.980;11.652;2022-10-22T15:34:30;17.90;68.80
50758;DHT22;36732;47.980;11.652;2022-10-22T15:36:59;17.90;68.90
50758;DHT22;36732;47.980;11.652;2022-10-22T15:39:27;17.90;68.90
50758;DHT22;36732;47.980;11.652;2022-10-22T15:41:54;17.90;68.90
50758;DHT22;36732;47.980;11.652;2022-10-22T15:44:25;17.90;68.90
50758;DHT22;36732;47.980;11.652;2022-10-22T15:46:53;17.90;68.90
50758;DHT22;36732;47.980;11.652;2022-10-22T15:49:21;17.90;68.80
50758;DHT22;36732;47.980;11.652;2022-10-22T15:51:48;17.90;68.90
50758;DHT22;36732;47.980;11.652;2022-10-22T15:54:16;17.90;69.00
50758;DHT22;36732;47.980;11.652;2022-10-22T15:56:44;17.90;69.00
50758;DHT22;36732;47.980;11.652;2022-10-22T15:59:11;17.80;68.90
50758;DHT22;36732;47.980;11.652;2022-10-22T16:01:38;17.90;69.00
50758;DHT22;36732;47.980;11.652;2022-10-22T16:04:05;17.80;68.90
50758;DHT22;36732;47.980;11.652;2022-10-22T16:06:34;17.90;69.00
50758;DHT22;36732;47.980;11.652;2022-10-22T16:09:04;17.80;68.80
50758;DHT22;36732;47.980;11.652;2022-10-22T16:11:40;17.80;69.30
50758;DHT22;36732;47.980;11.652;2022-10-22T16:14:06;17.80;68.60
50758;DHT22;36732;47.980;11.652;2022-10-22T16:16:34;17.80;68.50
50758;DHT22;36732;47.980;11.652;2022-10-22T16:19:00;17.80;68.60
50758;DHT22;36732;47.980;11.652;2022-10-22T16:21:27;17.80;68.50
50758;DHT22;36732;47.980;11.652;2022-10-22T16:23:53;17.70;68.50
50758;DHT22;36732;47.980;11.652;2022-10-22T16:26:19;17.70;68.40
50758;DHT22;36732;47.980;11.652;2022-10-22T16:28:46;17.70;68.30
50758;DHT22;36732;47.980;11.652;2022-10-22T16:31:14;17.70;68.20
50758;DHT22;36732;47.980;11.652;2022-10-22T16:33:41;17.70;68.20
50758;DHT22;36732;47.980;11.652;2022-10-22T16:36:09;17.70;68.30
50758;DHT22;36732;47.980;11.652;2022-10-22T16:38:35;17.70;68.20
50758;DHT22;36732;47.980;11.652;2022-10-22T16:41:15;17.60;68.10
50758;DHT22;36732;47.980;11.652;2022-10-22T16:43:44;17.60;68.10
50758;DHT22;36732;47.980;11.652;2022-10-22T16:46:13;17.60;68.00
50758;DHT22;36732;47.980;11.652;2022-10-22T16:48:44;17.60;68.00
50758;DHT22;36732;47.980;11.652;2022-10-22T16:51:14;17.50;67.80
50758;DHT22;36732;47.980;11.652;2022-10-22T16:53:41;17.50;67.70
50758;DHT22;36732;47.980;11.652;2022-10-22T16:56:11;17.50;67.60
50758;DHT22;36732;47.980;11.652;2022-10-22T16:58:43;17.50;67.50
50758;DHT22;36732;47.980;11.652;2022-10-22T17:01:13;17.40;67.30
50758;DHT22;36732;47.980;11.652;2022-10-22T17:03:39;17.40;67.30
50758;DHT22;36732;47.980;11.652;2022-10-22T17:06:06;17.40;67.20
50758;DHT22;36732;47.980;11.652;2022-10-22T17:08:36;17.40;67.20
50758;DHT22;36732;47.980;11.652;2022-10-22T17:11:12;17.40;67.00
50758;DHT22;36732;47.980;11.652;2022-10-22T17:13:43;17.30;66.80
50758;DHT22;36732;47.980;11.652;2022-10-22T17:16:11;17.30;66.90
50758;DHT22;36732;47.980;11.652;2022-10-22T17:18:39;17.30;66.70
50758;DHT22;36732;47.980;11.652;2022-10-22T17:21:07;17.30;66.60
50758;DHT22;36732;47.980;11.652;2022-10-22T17:23:33;17.30;66.50
50758;DHT22;36732;47.980;11.652;2022-10-22T17:26:04;17.30;66.40